Time;durP1;ratioP1;P1;durP2;ratioP2;P2;SDS_P1;SDS_P2;PMS_P1;PMS_P2;Temp;Humidity;BMP_temperature;BMP_pressure;BME280_temperature;BME280_humidity;BME280_pressure;Samples;Min_cycle;Max_cycle;Signal;HPM_P1;HPM_P2
2021/12/10 00:00:38;;;;;;;0.00;0.00;;;9.70;82.20;;;;;;5056515;28;20033;-78
2021/12/10 00:03:10;;;;;;;0.00;0.00;;;9.70;82.40;;;;;;5056837;28;20475;-80
2021/12/10 00:06:04;;;;;;;0.00;0.00;;;9.70;82.40;;;;;;5057472;28;20049;-79
2021/12/10 00:08:32;;;;;;;0.00;0.00;;;9.70;82.40;;;;;;5055293;28;20086;-80
2021/12/10 00:11:00;;;;;;;0.00;0.00;;;9.70;83.00;;;;;;5056881;28;20116;-79
2021/12/10 00:13:27;;;;;;;0.00;0.00;;;9.60;82.30;;;;;;5055734;28;20488;-80
2021/12/10 00:15:55;;;;;;;0.00;0.00;;;9.60;83.50;;;;;;5056090;28;20021;-80
2021/12/10 00:18:24;;;;;;;0.00;0.00;;;9.60;82.90;;;;;;5055968;28;20025;-79
2021/12/10 00:20:57;;;;;;;0.00;0.00;;;9.60;83.60;;;;;;5055185;28;20056;-80
2021/12/10 00:23:23;;;;;;;0.00;0.00;;;9.60;83.00;;;;;;5055620;28;20117;-79
2021/12/10 00:25:51;;;;;;;0.00;0.00;;;9.60;83.20;;;;;;5055797;28;20033;-79
2021/12/10 00:28:25;;;;;;;0.00;0.00;;;9.60;83.10;;;;;;5055234;28;20025;-79
2021/12/10 00:31:43;;;;;;;0.00;0.00;;;9.60;83.00;;;;;;5055813;28;20029;-78
2021/12/10 00:34:15;;;;;;;0.00;0.00;;;9.60;83.20;;;;;;5055200;28;20434;-78
2021/12/10 00:36:41;;;;;;;0.00;0.00;;;9.60;83.30;;;;;;5055567;28;20028;-77
2021/12/10 00:39:15;;;;;;;0.00;0.00;;;9.50;83.40;;;;;;5055089;28;20350;-77
2021/12/10 00:41:41;;;;;;;0.00;0.00;;;9.50;83.50;;;;;;5054557;28;20130;-78
2021/12/10 00:44:07;;;;;;;0.00;0.00;;;9.50;83.60;;;;;;5054924;28;20060;-78
2021/12/10 00:46:34;;;;;;;0.00;0.00;;;9.50;84.00;;;;;;5055200;28;20063;-79
2021/12/10 00:49:00;;;;;;;0.00;0.00;;;9.50;84.10;;;;;;5054163;28;20472;-78
2021/12/10 00:51:26;;;;;;;0.00;0.00;;;9.60;83.90;;;;;;5054788;28;20033;-79
2021/12/10 00:53:53;;;;;;;0.00;0.00;;;9.60;84.00;;;;;;5053846;28;20029;-77
2021/12/10 00:56:19;;;;;;;0.00;0.00;;;9.60;83.90;;;;;;5054548;28;20380;-78
2021/12/10 00:58:45;;;;;;;0.00;0.00;;;9.60;84.10;;;;;;5053743;28;20138;-80
2021/12/10 01:01:19;;;;;;;0.00;0.00;;;9.50;84.00;;;;;;5055033;28;20519;-79
2021/12/10 01:03:49;;;;;;;0.00;0.00;;;9.60;84.40;;;;;;5054005;28;20040;-80
2021/12/10 01:06:17;;;;;;;0.00;0.00;;;9.50;84.30;;;;;;5054120;28;20357;-78
2021/12/10 01:08:46;;;;;;;0.00;0.00;;;9.50;84.50;;;;;;5053949;28;20025;-78
2021/12/10 01:11:47;;;;;;;0.00;0.00;;;9.50;84.40;;;;;;5054785;28;20504;-79
2021/12/10 01:14:22;;;;;;;0.00;0.00;;;9.60;84.80;;;;;;5054502;28;20041;-77
2021/12/10 01:25:23;;;;;;;0.00;0.00;;;9.60;84.80;;;;;;5054871;28;20040;-78
2021/12/10 01:27:48;;;;;;;0.00;0.00;;;9.70;84.70;;;;;;5054526;28;20024;-79
2021/12/10 01:30:25;;;;;;;0.00;0.00;;;9.60;84.70;;;;;;5054604;28;20031;-78
2021/12/10 01:32:58;;;;;;;0.00;0.00;;;9.70;84.50;;;;;;5053269;28;20033;-80
2021/12/10 01:35:31;;;;;;;0.00;0.00;;;9.60;84.70;;;;;;5052964;28;20021;-78
2021/12/10 01:37:57;;;;;;;0.00;0.00;;;9.60;84.90;;;;;;5054887;28;20040;-78
2021/12/10 01:40:26;;;;;;;0.00;0.00;;;9.70;85.20;;;;;;5054579;28;20021;-77
2021/12/10 01:42:55;;;;;;;0.00;0.00;;;9.70;84.90;;;;;;5055116;28;20036;-79
2021/12/10 01:45:25;;;;;;;0.00;0.00;;;9.70;84.80;;;;;;5054317;28;20122;-77
2021/12/10 01:48:02;;;;;;;0.00;0.00;;;9.70;84.90;;;;;;5052936;28;20033;-79
2021/12/10 01:50:29;;;;;;;0.03;0.03;;;9.80;84.80;;;;;;5054100;28;20059;-78
2021/12/10 01:52:59;;;;;;;0.00;0.00;;;9.70;84.80;;;;;;5053774;28;20033;-79
2021/12/10 01:55:27;;;;;;;0.00;0.00;;;9.70;85.10;;;;;;5054262;28;20113;-79
2021/12/10 01:57:54;;;;;;;0.00;0.00;;;9.70;85.80;;;;;;5054190;28;20021;-80
2021/12/10 02:00:23;;;;;;;0.10;0.10;;;9.60;85.30;;;;;;5054213;28;20052;-80
2021/12/10 02:02:49;;;;;;;0.00;0.00;;;9.60;85.60;;;;;;5053852;28;20036;-80
2021/12/10 02:05:16;;;;;;;0.00;0.00;;;9.60;86.00;;;;;;5054062;28;20060;-78
2021/12/10 02:07:43;;;;;;;0.00;0.00;;;9.60;86.10;;;;;;5054732;28;20031;-77
2021/12/10 02:10:10;;;;;;;0.00;0.00;;;9.60;86.00;;;;;;5052983;28;20460;-78
2021/12/10 02:12:37;;;;;;;0.00;0.00;;;9.60;85.90;;;;;;5054290;28;20036;-79
2021/12/10 02:15:05;;;;;;;0.00;0.00;;;9.70;85.70;;;;;;5053932;28;20047;-78
2021/12/10 02:17:35;;;;;;;0.00;0.00;;;9.70;85.90;;;;;;5053945;28;20028;-78
2021/12/10 02:20:08;;;;;;;0.00;0.00;;;9.70;85.70;;;;;;5053689;28;20029;-79
2021/12/10 02:22:34;;;;;;;0.00;0.00;;;9.70;85.50;;;;;;5053966;28;20044;-78
2021/12/10 02:25:02;;;;;;;0.00;0.00;;;9.70;85.70;;;;;;5053894;28;20033;-79
2021/12/10 02:27:28;;;;;;;0.00;0.00;;;9.70;85.80;;;;;;5053730;28;20408;-78
2021/12/10 02:29:54;;;;;;;0.30;0.00;;;9.80;85.50;;;;;;5052402;28;20143;-78
2021/12/10 02:32:19;;;;;;;0.00;0.00;;;9.80;85.30;;;;;;5053297;28;20071;-77
2021/12/10 02:34:49;;;;;;;0.00;0.00;;;9.80;85.10;;;;;;5053608;28;20033;-77
2021/12/10 02:37:15;;;;;;;0.00;0.00;;;9.70;84.80;;;;;;5052429;28;20299;-79
2021/12/10 02:39:40;;;;;;;0.00;0.00;;;9.70;84.80;;;;;;5054123;28;20035;-78
2021/12/10 02:42:06;;;;;;;0.00;0.00;;;9.60;84.90;;;;;;5035970;28;20408;-78
2021/12/10 02:44:32;;;;;;;0.00;0.00;;;9.60;84.90;;;;;;5056313;28;20027;-79
2021/12/10 02:46:59;;;;;;;0.00;0.00;;;9.60;85.30;;;;;;5056366;28;20317;-78
2021/12/10 02:49:27;;;;;;;0.00;0.00;;;9.60;85.50;;;;;;5057394;28;20424;-79
2021/12/10 02:51:53;;;;;;;0.00;0.00;;;9.60;85.30;;;;;;5057474;28;20032;-79
2021/12/10 02:54:31;;;;;;;0.00;0.00;;;9.60;85.10;;;;;;5056874;28;20473;-78
2021/12/10 02:56:57;;;;;;;0.00;0.00;;;9.60;84.40;;;;;;5057631;28;20048;-79
2021/12/10 02:59:22;;;;;;;0.00;0.00;;;9.50;84.40;;;;;;5057569;28;20473;-79
2021/12/10 03:01:51;;;;;;;0.00;0.00;;;9.50;84.40;;;;;;5057580;28;20091;-79
2021/12/10 03:04:18;;;;;;;0.00;0.00;;;9.50;84.20;;;;;;5057437;28;20021;-79
2021/12/10 03:06:51;;;;;;;0.00;0.00;;;9.40;84.10;;;;;;5056231;28;20025;-78
2021/12/10 03:09:19;;;;;;;0.00;0.00;;;9.40;84.10;;;;;;5057542;28;20098;-78
2021/12/10 03:11:49;;;;;;;0.00;0.00;;;9.30;84.10;;;;;;5056918;28;20036;-78
2021/12/10 03:14:21;;;;;;;0.00;0.00;;;9.30;84.20;;;;;;5056683;28;20126;-78
2021/12/10 03:16:50;;;;;;;0.00;0.00;;;9.30;84.00;;;;;;5057397;28;20036;-77
2021/12/10 03:19:17;;;;;;;0.00;0.00;;;9.30;84.00;;;;;;5056778;28;20028;-79
2021/12/10 03:21:44;;;;;;;0.00;0.00;;;9.30;83.90;;;;;;5056661;28;20037;-79
2021/12/10 03:24:13;;;;;;;0.00;0.00;;;9.30;84.00;;;;;;5056626;28;20112;-78
2021/12/10 03:26:39;;;;;;;0.00;0.00;;;9.20;84.20;;;;;;5056572;28;20106;-77
2021/12/10 03:29:06;;;;;;;0.00;0.00;;;9.30;84.40;;;;;;5055470;28;20073;-77
2021/12/10 03:31:32;;;;;;;0.00;0.00;;;9.30;84.30;;;;;;5054903;28;20068;-79
2021/12/10 03:33:58;;;;;;;0.00;0.00;;;9.30;84.50;;;;;;5056741;28;20053;-80
2021/12/10 03:36:25;;;;;;;0.00;0.00;;;9.40;84.10;;;;;;5054725;28;20021;-78
2021/12/10 03:38:52;;;;;;;0.00;0.00;;;9.40;83.80;;;;;;5056398;28;20080;-78
2021/12/10 03:41:18;;;;;;;0.00;0.00;;;9.30;83.80;;;;;;5056276;28;20029;-79
2021/12/10 03:43:46;;;;;;;0.00;0.00;;;9.30;83.60;;;;;;5056095;28;20084;-79
2021/12/10 03:46:12;;;;;;;0.00;0.00;;;9.30;83.70;;;;;;5056795;28;20071;-79
2021/12/10 03:48:42;;;;;;;0.00;0.00;;;9.30;83.80;;;;;;5055898;28;20060;-78
2021/12/10 03:51:12;;;;;;;0.00;0.00;;;9.30;83.90;;;;;;5056176;28;20029;-78
2021/12/10 03:53:38;;;;;;;0.00;0.00;;;9.40;83.70;;;;;;5055249;28;20025;-78
2021/12/10 03:56:10;;;;;;;0.00;0.00;;;9.30;83.20;;;;;;5055393;28;20033;-78
2021/12/10 03:58:36;;;;;;;0.00;0.00;;;9.30;83.00;;;;;;5055311;28;20025;-79
2021/12/10 04:01:05;;;;;;;0.00;0.00;;;9.20;82.90;;;;;;5056488;28;20378;-79
2021/12/10 04:03:34;;;;;;;0.00;0.00;;;9.20;82.90;;;;;;5056494;28;20385;-78
2021/12/10 04:06:00;;;;;;;0.00;0.00;;;9.10;83.10;;;;;;5056381;28;20056;-77
2021/12/10 04:08:27;;;;;;;0.00;0.00;;;9.00;83.10;;;;;;5055542;28;20033;-79
2021/12/10 04:10:55;;;;;;;0.00;0.00;;;9.10;83.40;;;;;;5056948;28;20028;-78
2021/12/10 04:13:22;;;;;;;0.00;0.00;;;9.00;83.10;;;;;;5054627;28;20040;-82
2021/12/10 04:15:48;;;;;;;0.00;0.00;;;8.90;83.00;;;;;;5056434;28;20472;-79
2021/12/10 04:18:14;;;;;;;0.00;0.00;;;8.90;83.00;;;;;;5056175;28;20029;-77
2021/12/10 04:20:41;;;;;;;0.00;0.00;;;8.80;82.80;;;;;;5054956;28;20029;-76
2021/12/10 04:23:10;;;;;;;0.00;0.00;;;8.80;83.00;;;;;;5059962;28;20428;-80
2021/12/10 04:25:36;;;;;;;0.00;0.00;;;8.70;83.00;;;;;;5059594;28;20029;-79
2021/12/10 04:28:09;;;;;;;0.00;0.00;;;8.60;83.00;;;;;;5057126;28;20029;-80
2021/12/10 04:30:39;;;;;;;0.00;0.00;;;8.50;83.20;;;;;;5054504;28;20028;-78
2021/12/10 04:33:07;;;;;;;0.00;0.00;;;8.50;83.70;;;;;;5055862;28;20039;-79
2021/12/10 04:35:33;;;;;;;0.00;0.00;;;8.40;83.60;;;;;;5056201;28;20029;-78
2021/12/10 04:37:59;;;;;;;0.00;0.00;;;8.40;83.90;;;;;;5055207;28;20025;-84
2021/12/10 04:40:25;;;;;;;0.00;0.00;;;8.30;84.10;;;;;;5054947;28;20033;-78
2021/12/10 04:42:52;;;;;;;0.00;0.00;;;8.30;84.30;;;;;;5054520;28;20037;-79
2021/12/10 04:45:18;;;;;;;0.00;0.00;;;8.20;84.50;;;;;;5053469;28;20060;-79
2021/12/10 04:47:46;;;;;;;0.00;0.00;;;8.20;84.80;;;;;;5053688;28;20432;-80
2021/12/10 04:50:14;;;;;;;0.00;0.00;;;8.10;85.20;;;;;;5054652;28;20021;-79
2021/12/10 04:52:40;;;;;;;0.00;0.00;;;8.00;85.70;;;;;;5054370;28;20029;-78
2021/12/10 04:55:10;;;;;;;0.00;0.00;;;8.00;85.70;;;;;;5054601;28;20476;-80
2021/12/10 04:57:36;;;;;;;0.00;0.00;;;8.00;86.40;;;;;;5054828;28;20055;-79
2021/12/10 05:00:04;;;;;;;0.00;0.00;;;8.10;86.20;;;;;;5055533;28;20043;-80
2021/12/10 05:02:33;;;;;;;0.00;0.00;;;8.10;86.00;;;;;;5054635;28;20081;-81
2021/12/10 05:04:58;;;;;;;0.00;0.00;;;8.10;86.20;;;;;;5054113;28;20037;-79
2021/12/10 05:07:30;;;;;;;0.00;0.00;;;8.10;86.00;;;;;;5054011;28;20040;-80
2021/12/10 05:09:56;;;;;;;0.00;0.00;;;8.10;86.00;;;;;;5054905;28;20044;-79
2021/12/10 05:12:22;;;;;;;0.00;0.00;;;8.10;85.90;;;;;;5054865;28;20416;-79
2021/12/10 05:14:48;;;;;;;0.00;0.00;;;8.10;86.10;;;;;;5054797;28;20029;-80
2021/12/10 05:17:14;;;;;;;0.00;0.00;;;8.10;85.80;;;;;;5053765;28;20032;-79
2021/12/10 05:19:41;;;;;;;0.00;0.00;;;8.10;85.50;;;;;;5055065;28;20029;-79
2021/12/10 05:22:10;;;;;;;0.00;0.00;;;8.10;85.50;;;;;;5055213;28;20040;-80
2021/12/10 05:24:36;;;;;;;0.00;0.00;;;8.10;85.00;;;;;;5054918;28;20021;-80
2021/12/10 05:27:03;;;;;;;0.00;0.00;;;8.00;85.10;;;;;;5053978;28;20021;-80
2021/12/10 05:29:29;;;;;;;0.00;0.00;;;8.00;85.10;;;;;;5053109;28;20028;-79
2021/12/10 05:31:58;;;;;;;0.00;0.00;;;8.00;85.20;;;;;;5053444;28;20052;-80
2021/12/10 05:34:24;;;;;;;0.00;0.00;;;7.90;85.30;;;;;;5054513;28;20164;-81
2021/12/10 05:36:50;;;;;;;0.00;0.00;;;7.90;85.30;;;;;;5053868;28;20025;-80
2021/12/10 05:39:17;;;;;;;0.00;0.00;;;7.90;85.50;;;;;;5054361;28;20078;-78
2021/12/10 05:41:43;;;;;;;0.00;0.00;;;7.90;85.60;;;;;;5053065;28;20065;-80
2021/12/10 05:44:09;;;;;;;0.00;0.00;;;7.90;85.70;;;;;;5053446;28;20444;-78
2021/12/10 05:46:37;;;;;;;0.00;0.00;;;7.90;85.50;;;;;;5054107;28;20099;-80
2021/12/10 05:49:03;;;;;;;0.00;0.00;;;7.90;85.20;;;;;;5054022;28;20037;-83
2021/12/10 05:51:28;;;;;;;0.00;0.00;;;7.90;85.60;;;;;;5054387;28;20075;-79
2021/12/10 05:53:54;;;;;;;0.00;0.00;;;8.00;85.60;;;;;;5054589;28;20033;-80
2021/12/10 05:56:20;;;;;;;0.00;0.00;;;8.00;85.00;;;;;;5054166;28;20025;-80
2021/12/10 05:58:46;;;;;;;0.00;0.00;;;8.00;84.80;;;;;;5054227;28;20492;-79
2021/12/10 06:01:14;;;;;;;0.05;0.00;;;7.90;85.10;;;;;;5054118;28;20385;-78
2021/12/10 06:03:51;;;;;;;0.10;0.10;;;7.90;84.80;;;;;;5052908;28;20033;-80
2021/12/10 06:06:17;;;;;;;0.00;0.00;;;7.90;85.10;;;;;;5054386;28;20060;-78
2021/12/10 06:08:42;;;;;;;0.10;0.10;;;7.80;85.10;;;;;;5053235;28;20021;-79
2021/12/10 06:11:08;;;;;;;0.00;0.00;;;7.80;85.20;;;;;;5052505;28;20064;-78
2021/12/10 06:13:34;;;;;;;0.10;0.10;;;7.80;85.50;;;;;;5053080;28;20033;-79
2021/12/10 06:16:01;;;;;;;0.00;0.00;;;7.80;85.50;;;;;;5054924;28;20108;-78
2021/12/10 06:18:27;;;;;;;0.00;0.00;;;7.80;85.60;;;;;;5052853;28;20075;-81
2021/12/10 06:20:54;;;;;;;0.00;0.00;;;7.80;85.30;;;;;;5056900;28;20029;-82
2021/12/10 06:23:21;;;;;;;0.00;0.00;;;7.80;85.30;;;;;;5056423;28;20416;-80
2021/12/10 06:25:48;;;;;;;0.00;0.00;;;7.80;85.40;;;;;;5056870;28;20111;-79
2021/12/10 06:28:15;;;;;;;0.00;0.00;;;7.80;85.30;;;;;;5056829;28;20059;-80
2021/12/10 06:30:43;;;;;;;0.00;0.00;;;7.80;85.30;;;;;;5057601;28;20032;-79
2021/12/10 06:33:12;;;;;;;0.00;0.00;;;7.80;85.00;;;;;;5056360;28;20037;-79
2021/12/10 06:35:41;;;;;;;0.00;0.00;;;7.80;85.20;;;;;;5058089;28;20081;-80
2021/12/10 06:38:08;;;;;;;0.00;0.00;;;7.80;85.10;;;;;;5058552;28;20021;-80
2021/12/10 06:40:37;;;;;;;0.00;0.00;;;7.90;85.30;;;;;;5058695;28;20407;-78
2021/12/10 06:43:05;;;;;;;0.00;0.00;;;7.90;85.20;;;;;;5057969;28;20036;-79
2021/12/10 06:45:32;;;;;;;0.00;0.00;;;7.90;84.70;;;;;;5058053;28;20041;-80
2021/12/10 06:48:01;;;;;;;0.00;0.00;;;7.90;85.10;;;;;;5056402;28;20033;-80
2021/12/10 06:50:31;;;;;;;0.00;0.00;;;8.00;85.00;;;;;;5057910;28;20025;-81
2021/12/10 06:52:57;;;;;;;0.00;0.00;;;8.10;85.00;;;;;;5058111;28;20049;-78
2021/12/10 06:55:24;;;;;;;0.00;0.00;;;8.10;84.70;;;;;;5056529;28;20036;-80
2021/12/10 06:57:51;;;;;;;0.00;0.00;;;8.10;84.40;;;;;;5057376;28;20053;-78
2021/12/10 07:00:49;;;;;;;0.00;0.00;;;8.10;84.20;;;;;;5056849;28;20078;-79
2021/12/10 07:03:22;;;;;;;0.00;0.00;;;8.10;84.10;;;;;;5057566;28;20408;-78
2021/12/10 07:05:49;;;;;;;0.00;0.00;;;8.10;84.20;;;;;;5057446;28;20060;-79
2021/12/10 07:08:16;;;;;;;0.00;0.00;;;8.20;84.60;;;;;;5057386;28;20025;-79
2021/12/10 07:10:42;;;;;;;0.00;0.00;;;8.30;84.30;;;;;;5057614;28;20056;-79
2021/12/10 07:13:08;;;;;;;0.00;0.00;;;8.40;84.00;;;;;;5055698;28;20112;-82
2021/12/10 07:15:37;;;;;;;0.00;0.00;;;8.40;83.60;;;;;;5057502;28;20032;-79
2021/12/10 07:18:04;;;;;;;0.00;0.00;;;8.40;83.00;;;;;;5056270;28;20442;-80
2021/12/10 07:20:30;;;;;;;0.00;0.00;;;8.50;82.50;;;;;;5057134;28;20025;-79
2021/12/10 07:22:56;;;;;;;0.00;0.00;;;8.60;82.50;;;;;;5056311;28;20051;-79
2021/12/10 07:25:22;;;;;;;0.00;0.00;;;8.60;82.30;;;;;;5055614;28;20028;-79
2021/12/10 07:27:49;;;;;;;0.00;0.00;;;8.70;82.10;;;;;;5056606;28;20472;-78
2021/12/10 07:30:17;;;;;;;0.00;0.00;;;8.80;82.20;;;;;;5057254;28;20361;-79
2021/12/10 07:32:43;;;;;;;0.00;0.00;;;8.90;81.70;;;;;;5056530;28;20029;-79
2021/12/10 07:35:10;;;;;;;0.10;0.00;;;9.00;81.40;;;;;;5057174;28;20036;-79
2021/12/10 07:37:37;;;;;;;0.00;0.00;;;9.20;81.40;;;;;;5056841;28;20116;-79
2021/12/10 07:40:09;;;;;;;0.00;0.00;;;9.40;80.70;;;;;;5056600;28;20096;-79
2021/12/10 07:42:35;;;;;;;0.00;0.00;;;9.50;78.90;;;;;;5056979;28;20044;-79
2021/12/10 07:45:03;;;;;;;0.00;0.00;;;9.50;78.70;;;;;;5056763;28;20060;-80
2021/12/10 07:47:34;;;;;;;0.00;0.00;;;9.50;78.50;;;;;;5054977;28;20404;-80
2021/12/10 07:50:03;;;;;;;0.00;0.00;;;9.50;77.80;;;;;;5054956;28;20381;-78
2021/12/10 07:52:33;;;;;;;0.00;0.00;;;9.40;77.50;;;;;;5056190;28;20025;-79
2021/12/10 07:55:00;;;;;;;0.00;0.00;;;9.30;77.30;;;;;;5056313;28;20385;-80
2021/12/10 07:57:27;;;;;;;0.00;0.00;;;9.20;77.40;;;;;;5056610;28;20059;-80
2021/12/10 07:59:53;;;;;;;0.00;0.00;;;9.10;77.80;;;;;;5054743;28;20064;-80
2021/12/10 08:02:19;;;;;;;0.00;0.00;;;9.10;78.00;;;;;;5054420;28;20052;-78
2021/12/10 08:04:45;;;;;;;0.00;0.00;;;9.00;78.20;;;;;;5056035;28;20123;-80
2021/12/10 08:07:13;;;;;;;0.00;0.00;;;9.00;78.30;;;;;;5054942;28;20029;-81
2021/12/10 08:09:40;;;;;;;0.00;0.00;;;9.00;78.80;;;;;;5055741;28;20036;-81
2021/12/10 08:12:06;;;;;;;0.00;0.00;;;9.00;78.30;;;;;;5056527;28;20033;-78
2021/12/10 08:14:32;;;;;;;0.00;0.00;;;9.00;78.40;;;;;;5054851;28;20025;-82
2021/12/10 08:16:58;;;;;;;0.00;0.00;;;9.00;78.20;;;;;;5057009;28;20040;-79
2021/12/10 08:19:23;;;;;;;0.00;0.00;;;9.00;78.40;;;;;;5056315;28;20021;-80
2021/12/10 08:21:50;;;;;;;0.00;0.00;;;9.00;78.30;;;;;;5055113;28;20077;-79
2021/12/10 08:24:16;;;;;;;0.00;0.00;;;9.00;78.50;;;;;;5054280;28;20025;-80
2021/12/10 08:26:42;;;;;;;0.10;0.00;;;9.00;78.70;;;;;;5056624;28;20032;-81
2021/12/10 08:29:09;;;;;;;0.00;0.00;;;9.10;78.70;;;;;;5056268;28;20033;-78
2021/12/10 08:31:35;;;;;;;0.00;0.00;;;9.10;78.50;;;;;;5054752;28;20025;-81
2021/12/10 08:34:00;;;;;;;0.00;0.00;;;9.20;78.20;;;;;;5056179;28;20039;-78
2021/12/10 08:36:28;;;;;;;0.00;0.00;;;9.30;78.20;;;;;;5054644;28;20534;-79
2021/12/10 08:38:54;;;;;;;0.00;0.00;;;9.40;77.90;;;;;;5055706;28;20510;-81
2021/12/10 08:41:23;;;;;;;0.00;0.00;;;9.40;77.40;;;;;;5055066;28;20021;-79
2021/12/10 08:43:52;;;;;;;0.00;0.00;;;9.50;77.70;;;;;;5055943;28;20028;-80
2021/12/10 08:46:18;;;;;;;0.00;0.00;;;9.60;77.40;;;;;;5055938;28;20112;-78
2021/12/10 08:48:46;;;;;;;0.00;0.00;;;9.60;77.10;;;;;;5055448;28;20102;-80
2021/12/10 08:51:16;;;;;;;0.00;0.00;;;9.70;77.10;;;;;;5054442;28;20025;-79
2021/12/10 08:53:43;;;;;;;0.00;0.00;;;9.70;77.20;;;;;;5055980;28;20327;-82
2021/12/10 08:56:10;;;;;;;0.00;0.00;;;9.80;77.00;;;;;;5055001;28;20108;-80
2021/12/10 08:58:36;;;;;;;0.00;0.00;;;9.80;76.60;;;;;;5054364;28;20100;-79
2021/12/10 09:01:13;;;;;;;0.00;0.00;;;9.80;76.60;;;;;;5055305;28;20029;-83
2021/12/10 09:03:40;;;;;;;0.00;0.00;;;9.80;76.50;;;;;;5054852;28;20037;-80
2021/12/10 09:06:07;;;;;;;0.00;0.00;;;9.70;76.70;;;;;;5055176;28;20161;-80
2021/12/10 09:08:33;;;;;;;0.00;0.00;;;9.70;77.00;;;;;;5054785;28;20025;-80
2021/12/10 09:10:59;;;;;;;0.00;0.00;;;9.60;76.80;;;;;;5054856;28;20025;-78
2021/12/10 09:13:26;;;;;;;0.00;0.00;;;9.60;76.80;;;;;;5054483;28;20024;-80
2021/12/10 09:15:59;;;;;;;0.00;0.00;;;9.40;77.20;;;;;;5054182;28;20476;-81
2021/12/10 09:18:27;;;;;;;0.43;0.03;;;9.40;77.60;;;;;;5053956;28;20020;-80
2021/12/10 09:20:57;;;;;;;0.00;0.00;;;9.30;77.90;;;;;;5053314;28;20033;-81
2021/12/10 09:23:26;;;;;;;0.00;0.00;;;9.30;78.10;;;;;;5052981;28;20041;-79
2021/12/10 09:25:56;;;;;;;0.00;0.00;;;9.30;78.70;;;;;;5055249;28;20025;-79
2021/12/10 09:28:24;;;;;;;0.00;0.00;;;9.30;78.60;;;;;;5053949;28;20155;-79
2021/12/10 09:30:53;;;;;;;0.00;0.00;;;9.20;78.60;;;;;;5055033;28;20479;-79
2021/12/10 09:33:20;;;;;;;0.00;0.00;;;9.20;78.90;;;;;;5055008;28;20527;-79
2021/12/10 09:35:46;;;;;;;0.00;0.00;;;9.10;79.20;;;;;;5053955;28;20040;-80
2021/12/10 09:38:12;;;;;;;0.00;0.00;;;9.10;79.00;;;;;;5053672;28;20115;-78
2021/12/10 09:40:47;;;;;;;0.03;0.03;;;9.00;79.50;;;;;;5053646;28;20522;-79
2021/12/10 09:43:13;;;;;;;0.00;0.00;;;9.00;79.90;;;;;;5054706;28;20452;-79
2021/12/10 09:45:41;;;;;;;0.00;0.00;;;9.00;80.30;;;;;;5054617;28;20036;-79
2021/12/10 09:48:09;;;;;;;0.00;0.00;;;9.00;80.60;;;;;;5054341;28;20108;-79
2021/12/10 09:50:47;;;;;;;0.00;0.00;;;9.00;80.70;;;;;;5052995;28;20035;-80
2021/12/10 09:53:14;;;;;;;0.00;0.00;;;9.10;80.70;;;;;;5054327;28;20044;-80
2021/12/10 09:55:40;;;;;;;0.00;0.00;;;9.10;80.80;;;;;;5057807;28;20056;-80
2021/12/10 09:58:06;;;;;;;0.00;0.00;;;9.20;80.70;;;;;;5040635;28;20068;-80
2021/12/10 10:00:42;;;;;;;0.00;0.00;;;9.30;80.80;;;;;;5058659;28;20029;-79
2021/12/10 10:03:11;;;;;;;0.00;0.00;;;9.30;80.20;;;;;;5058246;28;20042;-78
2021/12/10 10:05:41;;;;;;;0.00;0.00;;;9.30;80.00;;;;;;5057716;28;20048;-79
2021/12/10 10:08:10;;;;;;;0.00;0.00;;;9.30;79.80;;;;;;5058677;28;20037;-80
2021/12/10 10:10:38;;;;;;;0.00;0.00;;;9.20;79.70;;;;;;5056975;28;20029;-80
2021/12/10 10:13:08;;;;;;;0.00;0.00;;;9.20;79.80;;;;;;5056906;28;20029;-80
2021/12/10 10:15:38;;;;;;;0.00;0.00;;;9.10;79.80;;;;;;5058475;28;20024;-80
2021/12/10 10:18:07;;;;;;;0.00;0.00;;;9.10;80.10;;;;;;5057322;28;20025;-79
2021/12/10 10:20:37;;;;;;;0.00;0.00;;;9.20;80.40;;;;;;5058330;28;20055;-79
2021/12/10 10:23:05;;;;;;;0.00;0.00;;;9.20;80.50;;;;;;5055961;28;20037;-78
2021/12/10 10:25:32;;;;;;;0.00;0.00;;;9.30;80.40;;;;;;5056972;28;20055;-80
2021/12/10 10:27:58;;;;;;;0.00;0.00;;;9.30;80.10;;;;;;5058167;28;20385;-80
2021/12/10 10:30:40;;;;;;;0.00;0.00;;;9.30;79.80;;;;;;5057479;28;20033;-81
2021/12/10 10:33:10;;;;;;;0.00;0.00;;;9.30;80.00;;;;;;5057507;28;20334;-80
2021/12/10 10:35:44;;;;;;;0.00;0.00;;;9.20;80.20;;;;;;5056910;28;20029;-81
2021/12/10 10:38:12;;;;;;;0.00;0.00;;;9.30;80.40;;;;;;5057749;28;20434;-79
2021/12/10 10:40:45;;;;;;;0.00;0.00;;;9.20;80.40;;;;;;5057243;28;20032;-80
2021/12/10 10:43:11;;;;;;;0.00;0.00;;;9.20;80.70;;;;;;5055867;28;20075;-80
2021/12/10 10:45:42;;;;;;;0.00;0.00;;;9.20;80.80;;;;;;5057010;28;20025;-80
2021/12/10 10:48:11;;;;;;;0.00;0.00;;;9.20;80.90;;;;;;5040460;28;20021;-81
2021/12/10 10:50:54;;;;;;;0.10;0.00;;;9.20;81.20;;;;;;5057432;28;20033;-81
2021/12/10 10:53:24;;;;;;;0.00;0.00;;;9.30;81.40;;;;;;5057179;28;20029;-80
2021/12/10 10:55:55;;;;;;;0.00;0.00;;;9.50;81.30;;;;;;5057328;28;20025;-80
2021/12/10 10:58:25;;;;;;;0.00;0.00;;;9.60;80.80;;;;;;5057436;28;20035;-79
2021/12/10 11:01:07;;;;;;;0.00;0.00;;;9.70;80.60;;;;;;5057052;28;20036;-80
2021/12/10 11:03:43;;;;;;;0.00;0.00;;;9.80;80.20;;;;;;5056670;28;20036;-78
2021/12/10 11:06:18;;;;;;;0.00;0.00;;;9.90;80.10;;;;;;5057124;28;20045;-81
2021/12/10 11:08:49;;;;;;;0.00;0.00;;;10.00;80.10;;;;;;5057244;28;20426;-79
2021/12/10 11:11:19;;;;;;;0.00;0.00;;;10.10;80.00;;;;;;5057450;28;20025;-81
2021/12/10 11:13:59;;;;;;;0.00;0.00;;;10.20;80.10;;;;;;5057021;28;20124;-79
2021/12/10 11:16:28;;;;;;;0.00;0.00;;;10.30;80.00;;;;;;5057572;28;20029;-78
2021/12/10 11:19:01;;;;;;;0.00;0.00;;;10.40;79.70;;;;;;5057200;28;20108;-79
2021/12/10 11:21:58;;;;;;;0.00;0.00;;;10.40;79.50;;;;;;5056777;28;20447;-80
2021/12/10 11:24:45;;;;;;;0.00;0.00;;;10.40;79.20;;;;;;5057561;28;20136;-79
2021/12/10 11:27:18;;;;;;;0.00;0.00;;;10.40;79.00;;;;;;5057041;28;20380;-80
2021/12/10 11:29:43;;;;;;;0.00;0.00;;;10.40;78.80;;;;;;5056863;28;20400;-79
2021/12/10 11:32:32;;;;;;;0.10;0.00;;;10.40;79.00;;;;;;5057210;28;20033;-81
2021/12/10 11:35:08;;;;;;;0.00;0.00;;;10.40;79.20;;;;;;5055643;28;20037;-80
2021/12/10 11:37:44;;;;;;;0.00;0.00;;;10.30;79.10;;;;;;5056678;28;20043;-79
2021/12/10 11:40:33;;;;;;;0.30;0.00;;;10.30;79.10;;;;;;5056422;28;20082;-79
2021/12/10 11:48:29;;;;;;;;;;;10.20;78.60;;;;;;5056811;28;20029;-80
2021/12/10 11:51:09;;;;;;;0.00;0.00;;;10.10;78.70;;;;;;5056624;28;19905;-82
2021/12/10 11:53:45;;;;;;;0.00;0.00;;;9.90;78.50;;;;;;5055866;28;20055;-85
2021/12/10 11:56:17;;;;;;;0.00;0.00;;;9.70;78.80;;;;;;5056124;28;20051;-81
2021/12/10 11:58:44;;;;;;;0.00;0.00;;;9.70;79.60;;;;;;5055757;28;20017;-81
2021/12/10 12:01:19;;;;;;;0.00;0.00;;;9.60;79.80;;;;;;5056767;28;20025;-84
2021/12/10 12:03:45;;;;;;;0.00;0.00;;;9.60;80.00;;;;;;5055977;28;20029;-83
2021/12/10 12:06:17;;;;;;;0.00;0.00;;;9.60;80.10;;;;;;5054687;28;20102;-79
2021/12/10 12:08:44;;;;;;;0.00;0.00;;;9.60;80.40;;;;;;5055557;28;20029;-81
2021/12/10 12:11:10;;;;;;;0.00;0.00;;;9.60;80.50;;;;;;5055185;28;20477;-81
2021/12/10 12:13:39;;;;;;;0.00;0.00;;;9.60;80.40;;;;;;5053915;28;20496;-82
2021/12/10 12:16:14;;;;;;;0.00;0.00;;;9.70;80.40;;;;;;5054750;28;20025;-81
2021/12/10 12:18:44;;;;;;;0.00;0.00;;;9.80;80.50;;;;;;5054205;28;20037;-80
2021/12/10 12:27:06;;;;;;;0.00;0.00;;;10.10;79.10;;;;;;5055797;28;20051;-81
2021/12/10 12:29:58;;;;;;;0.00;0.00;;;10.10;79.10;;;;;;5054951;28;20466;-85
2021/12/10 12:32:33;;;;;;;0.00;0.00;;;10.10;79.10;;;;;;5054183;28;20051;-82
2021/12/10 12:35:19;;;;;;;0.00;0.00;;;10.10;79.10;;;;;;5055727;28;20082;-80
2021/12/10 12:37:45;;;;;;;0.00;0.00;;;10.00;79.10;;;;;;5055578;28;20051;-80
2021/12/10 12:40:30;;;;;;;0.00;0.00;;;10.10;79.40;;;;;;5055949;28;20020;-82
2021/12/10 12:43:04;;;;;;;0.00;0.00;;;10.00;79.20;;;;;;5053599;28;20036;-81
2021/12/10 12:45:31;;;;;;;0.00;0.00;;;10.00;79.20;;;;;;5055548;28;20090;-81
2021/12/10 12:47:58;;;;;;;0.00;0.00;;;10.00;79.40;;;;;;5055479;28;20107;-80
2021/12/10 12:50:29;;;;;;;0.00;0.00;;;9.90;79.50;;;;;;5055025;28;20025;-79
2021/12/10 12:53:13;;;;;;;0.05;0.00;;;9.90;79.80;;;;;;5055049;28;20029;-79
2021/12/10 12:56:03;;;;;;;0.00;0.00;;;9.90;80.00;;;;;;5055092;28;20036;-81
2021/12/10 12:59:07;;;;;;;0.00;0.00;;;9.90;80.20;;;;;;5055007;28;20029;-79
2021/12/10 13:01:40;;;;;;;0.00;0.00;;;9.90;80.10;;;;;;5055542;28;20025;-82
2021/12/10 13:04:08;;;;;;;0.00;0.00;;;9.90;80.40;;;;;;5053557;28;20484;-80
2021/12/10 13:06:46;;;;;;;0.00;0.00;;;9.90;80.60;;;;;;5055733;28;20048;-80
2021/12/10 13:09:22;;;;;;;0.00;0.00;;;10.00;80.70;;;;;;5055379;28;20128;-80
2021/12/10 13:11:55;;;;;;;0.00;0.00;;;10.10;80.60;;;;;;5037219;28;20119;-81
2021/12/10 13:14:28;;;;;;;0.00;0.00;;;10.20;80.50;;;;;;5054446;28;20055;-81
2021/12/10 13:17:10;;;;;;;0.00;0.00;;;10.30;80.30;;;;;;5054352;28;20029;-81
2021/12/10 13:19:36;;;;;;;0.00;0.00;;;10.40;80.20;;;;;;5054372;28;20025;-78
2021/12/10 13:22:07;;;;;;;0.00;0.00;;;10.40;80.00;;;;;;5053849;28;20116;-80
2021/12/10 13:24:37;;;;;;;0.00;0.00;;;10.50;79.90;;;;;;5053140;28;20029;-79
2021/12/10 13:27:06;;;;;;;0.00;0.00;;;10.60;79.80;;;;;;5053075;28;20025;-81